Terminal Aerodrome Forecast
Issued by NWS Burlington, VT

Home | Current Version | Previous Version | Text Only | Print | Product List | Glossary On
Versions: 1 2 3 4 5 6 7 8 9 10 11 12 13 14 15
000
FTUS41 KBTV 311726
TAFBTV
TAF
KBTV 311726Z 3118/0118 01005KT P6SM SCT045
     FM010500 36006KT P6SM OVC040
     FM011700 35009KT P6SM VCSH OVC030=

USA.gov is the U.S. government's official web portal to all federal, state and local government web resources and services.